sensor_id;sensor_type;location;lat;lon;timestamp;P1;durP1;ratioP1;P2;durP2;ratioP2
10333;SDS011;5212;47.892;16.406;2023-01-01T08:38:42;54.13;;;36.90;;
10333;SDS011;5212;47.892;16.406;2023-01-01T08:48:55;39.50;;;27.13;;
10333;SDS011;5212;47.892;16.406;2023-01-01T08:51:22;37.23;;;27.80;;
10333;SDS011;5212;47.892;16.406;2023-01-01T08:53:49;47.67;;;32.33;;
10333;SDS011;5212;47.892;16.406;2023-01-01T09:03:56;69.87;;;47.87;;
10333;SDS011;5212;47.892;16.406;2023-01-01T10:30:49;52.23;;;34.73;;
10333;SDS011;5212;47.892;16.406;2023-01-01T10:36:30;46.30;;;31.77;;
10333;SDS011;5212;47.892;16.406;2023-01-01T10:39:01;48.60;;;32.57;;
10333;SDS011;5212;47.892;16.406;2023-01-01T10:41:44;48.70;;;30.70;;
10333;SDS011;5212;47.892;16.406;2023-01-01T10:47:41;51.37;;;33.53;;
10333;SDS011;5212;47.892;16.406;2023-01-01T10:55:39;49.13;;;33.53;;
10333;SDS011;5212;47.892;16.406;2023-01-01T10:58:39;48.90;;;33.03;;
10333;SDS011;5212;47.892;16.406;2023-01-01T15:38:33;22.40;;;17.33;;
10333;SDS011;5212;47.892;16.406;2023-01-01T15:44:24;22.37;;;16.83;;
10333;SDS011;5212;47.892;16.406;2023-01-01T15:50:06;22.77;;;16.57;;
10333;SDS011;5212;47.892;16.406;2023-01-01T15:57:45;20.23;;;15.40;;
10333;SDS011;5212;47.892;16.406;2023-01-01T16:00:17;20.23;;;16.00;;
10333;SDS011;5212;47.892;16.406;2023-01-01T16:02:47;23.90;;;17.93;;
10333;SDS011;5212;47.892;16.406;2023-01-01T16:05:14;26.47;;;19.40;;
10333;SDS011;5212;47.892;16.406;2023-01-01T16:07:43;22.67;;;17.60;;
10333;SDS011;5212;47.892;16.406;2023-01-01T16:10:12;30.10;;;21.53;;
10333;SDS011;5212;47.892;16.406;2023-01-01T16:12:41;27.07;;;19.33;;
10333;SDS011;5212;47.892;16.406;2023-01-01T16:15:14;28.10;;;19.67;;
10333;SDS011;5212;47.892;16.406;2023-01-01T16:17:42;27.80;;;20.87;;
10333;SDS011;5212;47.892;16.406;2023-01-01T16:20:22;26.67;;;19.50;;
10333;SDS011;5212;47.892;16.406;2023-01-01T16:22:49;25.00;;;17.50;;
10333;SDS011;5212;47.892;16.406;2023-01-01T16:25:16;24.40;;;17.40;;
10333;SDS011;5212;47.892;16.406;2023-01-01T16:30:19;23.83;;;17.33;;
10333;SDS011;5212;47.892;16.406;2023-01-01T16:33:09;24.40;;;17.23;;
10333;SDS011;5212;47.892;16.406;2023-01-01T16:35:43;24.07;;;17.80;;
10333;SDS011;5212;47.892;16.406;2023-01-01T16:38:11;24.63;;;16.00;;
10333;SDS011;5212;47.892;16.406;2023-01-01T16:43:19;25.60;;;17.97;;
10333;SDS011;5212;47.892;16.406;2023-01-01T16:55:02;30.47;;;20.70;;
10333;SDS011;5212;47.892;16.406;2023-01-01T16:57:30;35.63;;;23.17;;
10333;SDS011;5212;47.892;16.406;2023-01-01T16:59:58;33.73;;;22.43;;
10333;SDS011;5212;47.892;16.406;2023-01-01T17:02:24;34.40;;;22.33;;
10333;SDS011;5212;47.892;16.406;2023-01-01T17:07:37;32.33;;;20.83;;
10333;SDS011;5212;47.892;16.406;2023-01-01T17:10:16;30.13;;;19.60;;
10333;SDS011;5212;47.892;16.406;2023-01-01T17:17:47;33.00;;;19.67;;
10333;SDS011;5212;47.892;16.406;2023-01-01T17:20:13;32.33;;;20.63;;
10333;SDS011;5212;47.892;16.406;2023-01-01T17:22:59;27.60;;;19.20;;
10333;SDS011;5212;47.892;16.406;2023-01-01T17:55:13;18.63;;;15.00;;
10333;SDS011;5212;47.892;16.406;2023-01-01T17:57:44;19.37;;;15.17;;
10333;SDS011;5212;47.892;16.406;2023-01-01T18:17:19;14.70;;;12.20;;
10333;SDS011;5212;47.892;16.406;2023-01-01T18:19:54;16.10;;;12.73;;
10333;SDS011;5212;47.892;16.406;2023-01-01T18:36:14;20.10;;;15.67;;
10333;SDS011;5212;47.892;16.406;2023-01-01T18:59:31;22.23;;;17.27;;
10333;SDS011;5212;47.892;16.406;2023-01-01T19:04:51;20.97;;;16.50;;
10333;SDS011;5212;47.892;16.406;2023-01-01T19:09:57;18.80;;;14.70;;
10333;SDS011;5212;47.892;16.406;2023-01-01T19:15:28;21.70;;;17.30;;
10333;SDS011;5212;47.892;16.406;2023-01-01T19:17:58;24.07;;;18.77;;
10333;SDS011;5212;47.892;16.406;2023-01-01T19:20:25;26.90;;;17.57;;
10333;SDS011;5212;47.892;16.406;2023-01-01T19:22:59;23.27;;;17.70;;
10333;SDS011;5212;47.892;16.406;2023-01-01T19:56:45;24.93;;;18.87;;
10333;SDS011;5212;47.892;16.406;2023-01-01T19:59:12;27.97;;;19.77;;
10333;SDS011;5212;47.892;16.406;2023-01-01T20:01:38;27.13;;;20.30;;
10333;SDS011;5212;47.892;16.406;2023-01-01T20:04:05;29.03;;;20.37;;
10333;SDS011;5212;47.892;16.406;2023-01-01T20:06:31;25.93;;;19.37;;
10333;SDS011;5212;47.892;16.406;2023-01-01T20:09:00;28.23;;;19.17;;
10333;SDS011;5212;47.892;16.406;2023-01-01T20:11:27;25.87;;;18.97;;
10333;SDS011;5212;47.892;16.406;2023-01-01T20:13:56;24.37;;;17.93;;
10333;SDS011;5212;47.892;16.406;2023-01-01T20:16:23;25.93;;;18.90;;
10333;SDS011;5212;47.892;16.406;2023-01-01T20:18:49;22.47;;;17.70;;
10333;SDS011;5212;47.892;16.406;2023-01-01T20:21:15;25.43;;;18.70;;
10333;SDS011;5212;47.892;16.406;2023-01-01T20:24:00;22.33;;;17.00;;
10333;SDS011;5212;47.892;16.406;2023-01-01T20:26:26;29.20;;;20.13;;
10333;SDS011;5212;47.892;16.406;2023-01-01T20:28:52;30.43;;;20.13;;
10333;SDS011;5212;47.892;16.406;2023-01-01T20:31:37;27.33;;;19.80;;
10333;SDS011;5212;47.892;16.406;2023-01-01T20:34:03;26.70;;;19.63;;
10333;SDS011;5212;47.892;16.406;2023-01-01T20:36:29;27.67;;;19.10;;
10333;SDS011;5212;47.892;16.406;2023-01-01T20:39:14;24.83;;;18.80;;
10333;SDS011;5212;47.892;16.406;2023-01-01T20:41:40;26.93;;;19.17;;
10333;SDS011;5212;47.892;16.406;2023-01-01T20:44:07;24.63;;;16.10;;
10333;SDS011;5212;47.892;16.406;2023-01-01T20:46:33;25.43;;;18.70;;
10333;SDS011;5212;47.892;16.406;2023-01-01T20:49:03;25.57;;;17.60;;
10333;SDS011;5212;47.892;16.406;2023-01-01T20:51:30;24.97;;;16.33;;
10333;SDS011;5212;47.892;16.406;2023-01-01T20:53:57;26.70;;;19.70;;
10333;SDS011;5212;47.892;16.406;2023-01-01T20:56:23;26.10;;;18.20;;
10333;SDS011;5212;47.892;16.406;2023-01-01T20:58:50;31.73;;;21.77;;
10333;SDS011;5212;47.892;16.406;2023-01-01T21:01:17;34.90;;;22.10;;
10333;SDS011;5212;47.892;16.406;2023-01-01T21:03:44;38.60;;;24.27;;
10333;SDS011;5212;47.892;16.406;2023-01-01T21:06:11;45.03;;;29.70;;
10333;SDS011;5212;47.892;16.406;2023-01-01T21:08:37;37.37;;;24.47;;
10333;SDS011;5212;47.892;16.406;2023-01-01T21:11:03;35.53;;;23.03;;
10333;SDS011;5212;47.892;16.406;2023-01-01T21:13:30;29.73;;;21.00;;
10333;SDS011;5212;47.892;16.406;2023-01-01T21:15:57;30.23;;;20.20;;
10333;SDS011;5212;47.892;16.406;2023-01-01T21:18:36;29.57;;;19.20;;
10333;SDS011;5212;47.892;16.406;2023-01-01T21:21:04;29.30;;;19.43;;
10333;SDS011;5212;47.892;16.406;2023-01-01T21:23:37;31.00;;;20.17;;
10333;SDS011;5212;47.892;16.406;2023-01-01T21:26:06;24.27;;;17.53;;
10333;SDS011;5212;47.892;16.406;2023-01-01T21:28:38;27.90;;;19.00;;
10333;SDS011;5212;47.892;16.406;2023-01-01T21:31:07;22.90;;;16.63;;
10333;SDS011;5212;47.892;16.406;2023-01-01T21:33:37;26.30;;;18.23;;
10333;SDS011;5212;47.892;16.406;2023-01-01T21:36:09;26.47;;;18.23;;
10333;SDS011;5212;47.892;16.406;2023-01-01T21:38:43;31.27;;;20.80;;
10333;SDS011;5212;47.892;16.406;2023-01-01T21:41:14;27.70;;;19.17;;
10333;SDS011;5212;47.892;16.406;2023-01-01T21:43:48;27.87;;;18.77;;
10333;SDS011;5212;47.892;16.406;2023-01-01T21:46:17;25.77;;;18.47;;
10333;SDS011;5212;47.892;16.406;2023-01-01T21:49:05;29.53;;;20.07;;
10333;SDS011;5212;47.892;16.406;2023-01-01T21:51:41;29.27;;;21.00;;
10333;SDS011;5212;47.892;16.406;2023-01-01T21:54:16;31.27;;;20.63;;
10333;SDS011;5212;47.892;16.406;2023-01-01T21:56:45;29.70;;;20.47;;
10333;SDS011;5212;47.892;16.406;2023-01-01T21:59:17;30.77;;;20.73;;
10333;SDS011;5212;47.892;16.406;2023-01-01T22:01:51;34.17;;;23.40;;
10333;SDS011;5212;47.892;16.406;2023-01-01T22:04:19;30.93;;;21.87;;
10333;SDS011;5212;47.892;16.406;2023-01-01T22:06:50;29.80;;;21.00;;
10333;SDS011;5212;47.892;16.406;2023-01-01T22:09:18;28.27;;;19.73;;
10333;SDS011;5212;47.892;16.406;2023-01-01T22:11:47;26.70;;;19.30;;
10333;SDS011;5212;47.892;16.406;2023-01-01T22:14:15;26.27;;;19.70;;
10333;SDS011;5212;47.892;16.406;2023-01-01T22:16:43;27.33;;;19.43;;
10333;SDS011;5212;47.892;16.406;2023-01-01T22:19:11;27.57;;;20.07;;
10333;SDS011;5212;47.892;16.406;2023-01-01T22:21:40;26.23;;;19.60;;
10333;SDS011;5212;47.892;16.406;2023-01-01T22:24:17;26.73;;;18.97;;
10333;SDS011;5212;47.892;16.406;2023-01-01T22:29:44;25.50;;;18.30;;
10333;SDS011;5212;47.892;16.406;2023-01-01T22:32:12;26.60;;;19.60;;
10333;SDS011;5212;47.892;16.406;2023-01-01T22:34:42;25.57;;;18.77;;
10333;SDS011;5212;47.892;16.406;2023-01-01T22:37:09;23.60;;;17.73;;
10333;SDS011;5212;47.892;16.406;2023-01-01T22:39:41;24.80;;;18.73;;
10333;SDS011;5212;47.892;16.406;2023-01-01T22:42:08;28.97;;;19.43;;
10333;SDS011;5212;47.892;16.406;2023-01-01T22:44:38;31.27;;;22.10;;
10333;SDS011;5212;47.892;16.406;2023-01-01T22:47:05;29.30;;;21.03;;
10333;SDS011;5212;47.892;16.406;2023-01-01T22:49:34;27.67;;;20.17;;
10333;SDS011;5212;47.892;16.406;2023-01-01T22:52:03;25.53;;;19.27;;
10333;SDS011;5212;47.892;16.406;2023-01-01T22:54:32;26.43;;;18.67;;
10333;SDS011;5212;47.892;16.406;2023-01-01T22:56:59;29.60;;;20.57;;
10333;SDS011;5212;47.892;16.406;2023-01-01T22:59:25;28.27;;;20.10;;
10333;SDS011;5212;47.892;16.406;2023-01-01T23:01:52;27.50;;;19.83;;
10333;SDS011;5212;47.892;16.406;2023-01-01T23:04:18;26.47;;;18.37;;
10333;SDS011;5212;47.892;16.406;2023-01-01T23:06:45;33.57;;;22.80;;
10333;SDS011;5212;47.892;16.406;2023-01-01T23:09:12;32.80;;;22.33;;
10333;SDS011;5212;47.892;16.406;2023-01-01T23:11:41;26.57;;;18.87;;
10333;SDS011;5212;47.892;16.406;2023-01-01T23:14:09;25.47;;;17.83;;
10333;SDS011;5212;47.892;16.406;2023-01-01T23:16:53;27.87;;;19.60;;
10333;SDS011;5212;47.892;16.406;2023-01-01T23:19:20;29.07;;;21.07;;
10333;SDS011;5212;47.892;16.406;2023-01-01T23:21:47;28.43;;;21.00;;
10333;SDS011;5212;47.892;16.406;2023-01-01T23:24:14;31.33;;;21.37;;
10333;SDS011;5212;47.892;16.406;2023-01-01T23:26:42;34.07;;;24.00;;
10333;SDS011;5212;47.892;16.406;2023-01-01T23:29:10;32.23;;;23.03;;
10333;SDS011;5212;47.892;16.406;2023-01-01T23:31:36;31.33;;;21.97;;
10333;SDS011;5212;47.892;16.406;2023-01-01T23:34:04;28.43;;;20.83;;
10333;SDS011;5212;47.892;16.406;2023-01-01T23:36:30;26.80;;;19.03;;
10333;SDS011;5212;47.892;16.406;2023-01-01T23:38:57;26.13;;;19.33;;
10333;SDS011;5212;47.892;16.406;2023-01-01T23:41:23;27.77;;;20.20;;
10333;SDS011;5212;47.892;16.406;2023-01-01T23:43:50;25.17;;;19.10;;
10333;SDS011;5212;47.892;16.406;2023-01-01T23:46:17;24.43;;;18.80;;
10333;SDS011;5212;47.892;16.406;2023-01-01T23:48:43;29.37;;;21.63;;
10333;SDS011;5212;47.892;16.406;2023-01-01T23:51:11;28.23;;;20.80;;
10333;SDS011;5212;47.892;16.406;2023-01-01T23:53:37;27.83;;;20.60;;
10333;SDS011;5212;47.892;16.406;2023-01-01T23:56:04;24.90;;;19.03;;
10333;SDS011;5212;47.892;16.406;2023-01-01T23:58:31;27.53;;;20.47;;
